Time;durP1;ratioP1;P1;durP2;ratioP2;P2;SDS_P1;SDS_P2;PMS_P1;PMS_P2;Temp;Humidity;BMP_temperature;BMP_pressure;BME280_temperature;BME280_humidity;BME280_pressure;Samples;Min_cycle;Max_cycle;Signal;HPM_P1;HPM_P2
2023/01/20 00:00:10;;;;;;;7.63;4.13;;;;;;;4.83;100.00;98537.03;4856842;29;20026;-80
2023/01/20 00:02:36;;;;;;;11.45;3.70;;;;;;;4.62;100.00;98566.19;4836713;29;20090;-81
2023/01/20 00:05:02;;;;;;;10.65;3.75;;;;;;;4.61;100.00;98555.94;4853846;29;20434;-81
2023/01/20 00:07:28;;;;;;;8.80;3.22;;;;;;;4.68;100.00;98557.72;4853321;29;20030;-81
2023/01/20 00:09:53;;;;;;;14.93;4.28;;;;;;;4.77;100.00;98553.28;4835078;29;20025;-82
2023/01/20 00:12:22;;;;;;;9.68;3.67;;;;;;;4.63;100.00;98559.22;4834814;29;20038;-81
2023/01/20 00:14:47;;;;;;;8.00;2.85;;;;;;;4.51;100.00;98566.53;4855590;29;20078;-81
2023/01/20 00:17:13;;;;;;;17.13;4.35;;;;;;;4.67;100.00;98556.09;4854782;29;20511;-81
2023/01/20 00:19:39;;;;;;;12.18;3.53;;;;;;;4.80;100.00;98571.16;4855005;29;20400;-81
2023/01/20 00:22:04;;;;;;;12.77;3.42;;;;;;;4.65;100.00;98578.06;4857395;29;20071;-80
2023/01/20 00:24:30;;;;;;;11.15;2.75;;;;;;;4.59;100.00;98561.34;4836889;29;20044;-81
2023/01/20 00:26:56;;;;;;;11.30;2.60;;;;;;;4.86;100.00;98572.28;4852009;29;20036;-81
2023/01/20 00:29:21;;;;;;;11.52;3.20;;;;;;;4.83;100.00;98585.63;4854705;29;20041;-81
2023/01/20 00:31:47;;;;;;;13.23;2.83;;;;;;;4.91;100.00;98580.38;4852792;29;20045;-81
2023/01/20 00:34:12;;;;;;;11.90;4.22;;;;;;;4.78;100.00;98572.31;4848945;29;20129;-81
2023/01/20 00:36:38;;;;;;;16.35;3.38;;;;;;;4.53;100.00;98580.22;4851388;29;20126;-81
2023/01/20 00:39:04;;;;;;;6.60;3.10;;;;;;;4.75;100.00;98583.84;4850985;29;20390;-80
2023/01/20 00:41:31;;;;;;;6.20;3.13;;;;;;;4.71;100.00;98582.56;4838634;29;20045;-80
2023/01/20 00:43:56;;;;;;;11.07;3.17;;;;;;;4.50;100.00;98585.72;4855393;29;20124;-80
2023/01/20 00:46:22;;;;;;;9.45;2.90;;;;;;;4.65;100.00;98578.84;4853644;29;20128;-80
2023/01/20 00:48:48;;;;;;;10.30;3.33;;;;;;;4.59;100.00;98610.72;4850784;29;20038;-80
2023/01/20 00:51:14;;;;;;;10.02;3.20;;;;;;;4.65;100.00;98586.66;4836006;29;20025;-80
2023/01/20 00:53:40;;;;;;;8.15;3.10;;;;;;;4.66;100.00;98590.06;4854035;29;20405;-79
2023/01/20 00:56:06;;;;;;;13.30;3.45;;;;;;;4.78;100.00;98593.13;4853891;29;20049;-80
2023/01/20 00:58:31;;;;;;;13.73;3.80;;;;;;;4.77;100.00;98601.91;4853213;29;20033;-79
2023/01/20 01:00:57;;;;;;;9.65;3.10;;;;;;;4.67;100.00;98602.09;4852581;29;20052;-81
2023/01/20 01:03:24;;;;;;;7.43;2.92;;;;;;;4.50;100.00;98601.31;4855835;29;20057;-81
2023/01/20 01:05:50;;;;;;;12.57;3.25;;;;;;;4.52;100.00;98614.94;4836945;29;20029;-79
2023/01/20 01:08:16;;;;;;;11.02;3.38;;;;;;;4.71;100.00;98619.78;4848596;29;20074;-79
2023/01/20 01:10:41;;;;;;;15.35;3.40;;;;;;;4.55;100.00;98627.63;4849066;29;20033;-79
2023/01/20 01:13:08;;;;;;;14.73;3.60;;;;;;;4.59;100.00;98615.91;4851140;29;20041;-78
2023/01/20 01:15:34;;;;;;;11.75;3.60;;;;;;;4.56;100.00;98611.84;4855677;29;20037;-78
2023/01/20 01:18:00;;;;;;;15.38;4.70;;;;;;;4.65;100.00;98612.66;4851622;29;20516;-77
2023/01/20 01:20:26;;;;;;;5.03;2.88;;;;;;;4.49;100.00;98623.06;4835557;29;20037;-81
2023/01/20 01:22:52;;;;;;;8.15;3.20;;;;;;;4.61;100.00;98619.16;4849613;29;20477;-79
2023/01/20 01:25:18;;;;;;;13.20;3.92;;;;;;;4.69;100.00;98621.72;4837997;29;20021;-79
2023/01/20 01:27:44;;;;;;;13.27;2.97;;;;;;;4.68;100.00;98640.91;4853326;29;20030;-80
2023/01/20 01:30:11;;;;;;;8.77;2.92;;;;;;;4.51;100.00;98644.50;4849892;29;20032;-81
2023/01/20 01:32:38;;;;;;;14.65;3.55;;;;;;;4.71;100.00;98648.38;4833456;29;20030;-79
2023/01/20 01:35:03;;;;;;;12.43;4.15;;;;;;;4.55;100.00;98645.84;4851935;29;20358;-80
2023/01/20 01:37:29;;;;;;;10.57;3.60;;;;;;;4.42;100.00;98647.13;4835590;29;20034;-84
2023/01/20 01:39:54;;;;;;;6.10;2.28;;;;;;;4.55;100.00;98659.63;4833882;29;20041;-84
2023/01/20 01:42:23;;;;;;;10.38;2.55;;;;;;;4.71;100.00;98648.38;4855664;29;20041;-84
2023/01/20 01:45:10;;;;;;;5.22;2.35;;;;;;;4.56;100.00;98669.03;4839640;29;20536;-83
2023/01/20 01:47:39;;;;;;;8.10;2.20;;;;;;;4.45;100.00;98645.19;4848305;29;20049;-84
2023/01/20 01:50:10;;;;;;;11.10;2.40;;;;;;;4.38;100.00;98645.03;4851291;29;20094;-84
2023/01/20 01:52:39;;;;;;;10.23;2.63;;;;;;;4.58;100.00;98661.09;4850845;29;20046;-83
2023/01/20 01:55:05;;;;;;;9.00;2.35;;;;;;;4.49;100.00;98672.47;4852808;29;20420;-82
2023/01/20 01:57:31;;;;;;;7.68;2.47;;;;;;;4.51;100.00;98658.34;4852602;29;20049;-82
2023/01/20 01:59:56;;;;;;;10.32;2.63;;;;;;;4.43;100.00;98656.56;4831025;29;20401;-82
2023/01/20 02:02:22;;;;;;;10.93;2.83;;;;;;;4.35;100.00;98659.19;4856149;29;20041;-82
2023/01/20 02:04:48;;;;;;;5.82;2.17;;;;;;;4.53;100.00;98664.19;4836860;29;20033;-82
2023/01/20 02:07:19;;;;;;;4.63;2.42;;;;;;;4.36;100.00;98663.41;4851956;29;20060;-83
2023/01/20 02:09:45;;;;;;;9.30;2.22;;;;;;;4.40;100.00;98667.28;4848397;29;20030;-83
2023/01/20 02:12:14;;;;;;;9.07;2.83;;;;;;;4.61;100.00;98684.16;4849633;29;20056;-83
2023/01/20 02:14:51;;;;;;;6.72;2.17;;;;;;;4.68;100.00;98685.09;4848117;29;20033;-83
2023/01/20 02:17:55;;;;;;;8.10;3.05;;;;;;;4.67;100.00;98693.09;4852370;29;20041;-83
2023/01/20 02:20:36;;;;;;;7.93;2.70;;;;;;;4.58;100.00;98687.88;4845281;29;20037;-82
2023/01/20 02:23:40;;;;;;;10.18;2.83;;;;;;;4.46;100.00;98685.78;4849080;29;20053;-82
2023/01/20 02:26:35;;;;;;;10.48;2.60;;;;;;;4.23;100.00;98689.03;4851468;29;20045;-82
2023/01/20 02:29:39;;;;;;;12.07;3.08;;;;;;;4.30;100.00;98705.59;4848733;29;20034;-83
2023/01/20 02:32:18;;;;;;;15.38;2.80;;;;;;;4.36;100.00;98704.97;4852743;29;20044;-82
2023/01/20 02:34:58;;;;;;;10.40;2.90;;;;;;;4.29;100.00;98714.38;4852141;29;20482;-83
2023/01/20 02:37:29;;;;;;;8.75;2.42;;;;;;;4.53;100.00;98704.97;4848360;29;20025;-82
2023/01/20 02:40:13;;;;;;;8.35;2.80;;;;;;;4.32;100.00;98702.84;4853818;29;20034;-83
2023/01/20 02:42:48;;;;;;;11.40;3.00;;;;;;;4.41;100.00;98712.25;4852572;29;20396;-82
2023/01/20 02:45:21;;;;;;;10.25;2.63;;;;;;;4.49;100.00;98714.88;4855881;29;20444;-82
2023/01/20 02:48:04;;;;;;;6.75;2.63;;;;;;;4.36;100.00;98723.16;4847944;29;20056;-82
2023/01/20 02:50:55;;;;;;;7.45;2.20;;;;;;;4.46;100.00;98719.56;4836104;29;20030;-82
2023/01/20 02:53:24;;;;;;;8.85;2.33;;;;;;;4.26;100.00;98725.09;4846468;29;20441;-81
2023/01/20 02:55:53;;;;;;;8.65;2.00;;;;;;;4.28;100.00;98720.53;4852618;29;20080;-82
2023/01/20 02:58:24;;;;;;;4.53;2.28;;;;;;;4.37;100.00;98722.19;4851507;29;20554;-82
2023/01/20 03:01:02;;;;;;;7.82;1.95;;;;;;;4.22;100.00;98729.00;4850664;29;20061;-82
2023/01/20 03:03:33;;;;;;;8.90;2.58;;;;;;;4.29;100.00;98717.78;4852209;29;20038;-83
2023/01/20 03:06:02;;;;;;;7.35;2.60;;;;;;;4.22;100.00;98731.59;4847907;29;20481;-82
2023/01/20 03:08:31;;;;;;;8.82;2.60;;;;;;;4.32;100.00;98734.03;4834995;29;20033;-83
2023/01/20 03:11:02;;;;;;;6.78;2.63;;;;;;;4.46;100.00;98742.97;4850531;29;20062;-82
2023/01/20 03:13:34;;;;;;;10.27;3.17;;;;;;;4.42;100.00;98735.50;4852083;29;20063;-82
2023/01/20 03:16:11;;;;;;;10.93;2.85;;;;;;;4.37;100.00;98758.56;4845731;29;20041;-83
2023/01/20 03:18:37;;;;;;;7.85;2.97;;;;;;;4.39;100.00;98746.22;4850039;29;20041;-82
2023/01/20 03:21:04;;;;;;;10.68;2.80;;;;;;;4.33;100.00;98741.69;4851658;29;20033;-82
2023/01/20 03:23:34;;;;;;;9.05;2.80;;;;;;;4.40;100.00;98753.03;4849552;29;20089;-82
2023/01/20 03:26:01;;;;;;;13.25;3.08;;;;;;;4.39;100.00;98759.22;4849401;29;20033;-82
2023/01/20 03:28:27;;;;;;;9.25;2.78;;;;;;;4.31;100.00;98761.78;4848841;29;20116;-82
2023/01/20 03:30:56;;;;;;;12.95;3.25;;;;;;;4.38;100.00;98754.16;4831862;29;20781;-81
2023/01/20 03:33:22;;;;;;;13.05;3.88;;;;;;;4.16;100.00;98753.03;4850779;29;20385;-81
2023/01/20 03:35:51;;;;;;;8.20;2.92;;;;;;;4.24;100.00;98773.81;4857923;29;20125;-81
2023/01/20 03:38:17;;;;;;;11.15;4.03;;;;;;;4.29;100.00;98761.97;4855211;29;20442;-82
2023/01/20 03:41:36;;;;;;;11.23;3.40;;;;;;;4.27;100.00;98794.25;4853650;29;20034;-82
2023/01/20 03:44:10;;;;;;;10.70;3.58;;;;;;;4.42;100.00;98782.28;4795296;29;20056;-82
2023/01/20 03:46:56;;;;;;;9.15;2.88;;;;;;;4.35;100.00;98793.47;4851205;29;20045;-83
2023/01/20 03:49:22;;;;;;;22.25;4.15;;;;;;;4.26;100.00;98793.47;4858733;29;20093;-84
2023/01/20 03:52:06;;;;;;;7.18;2.88;;;;;;;4.39;100.00;98789.56;4855445;29;20116;-83
2023/01/20 03:54:52;;;;;;;8.98;3.10;;;;;;;4.27;100.00;98789.06;4836249;29;20053;-82
2023/01/20 03:57:23;;;;;;;12.77;2.42;;;;;;;4.14;100.00;98797.31;4837300;29;20099;-82
2023/01/20 03:59:51;;;;;;;11.60;3.08;;;;;;;4.22;100.00;98793.94;4831021;29;20033;-82
2023/01/20 04:02:18;;;;;;;6.05;2.67;;;;;;;4.25;100.00;98801.41;4853519;29;20145;-82
2023/01/20 04:04:48;;;;;;;11.18;2.60;;;;;;;4.16;100.00;98826.56;4851774;29;21501;-82
2023/01/20 04:07:22;;;;;;;10.20;3.30;;;;;;;4.24;100.00;98813.59;4855324;29;20128;-82
2023/01/20 04:09:58;;;;;;;14.55;2.85;;;;;;;4.19;100.00;98818.44;4837619;29;20120;-81
2023/01/20 04:12:24;;;;;;;14.50;2.40;;;;;;;4.08;100.00;98806.56;4854802;29;20033;-83
2023/01/20 04:14:49;;;;;;;5.03;2.50;;;;;;;4.20;100.00;98814.06;4853254;29;20045;-82
2023/01/20 04:17:15;;;;;;;15.98;2.63;;;;;;;4.11;100.00;98818.44;4853036;29;20112;-83
2023/01/20 04:19:41;;;;;;;11.45;2.92;;;;;;;4.26;100.00;98816.03;4840634;29;20487;-83
2023/01/20 04:22:13;;;;;;;11.52;2.35;;;;;;;4.26;100.00;98808.22;4853579;29;20025;-82
2023/01/20 04:24:58;;;;;;;11.60;3.28;;;;;;;4.14;100.00;98821.53;4853845;29;20025;-82
2023/01/20 04:27:23;;;;;;;8.77;2.22;;;;;;;4.04;100.00;98825.25;4838832;29;20034;-82
2023/01/20 04:29:49;;;;;;;14.68;2.85;;;;;;;4.10;100.00;98820.19;4855841;29;20037;-82
2023/01/20 04:32:14;;;;;;;5.65;2.00;;;;;;;4.22;100.00;98831.09;4839482;29;20113;-82
2023/01/20 04:34:40;;;;;;;10.15;3.17;;;;;;;4.32;100.00;98838.75;4851213;29;20042;-81
2023/01/20 04:37:05;;;;;;;5.80;2.15;;;;;;;4.26;100.00;98844.59;4853582;29;20046;-81
2023/01/20 04:39:32;;;;;;;9.35;2.90;;;;;;;4.16;100.00;98839.53;4855509;29;20484;-82
2023/01/20 04:41:58;;;;;;;8.27;2.22;;;;;;;4.10;100.00;98845.38;4855232;29;20041;-84
2023/01/20 04:44:23;;;;;;;7.63;2.00;;;;;;;4.18;100.00;98845.41;4857499;29;20044;-82
2023/01/20 04:46:49;;;;;;;10.25;2.65;;;;;;;4.19;100.00;98859.22;4835529;29;20051;-83
2023/01/20 04:49:14;;;;;;;11.93;2.47;;;;;;;4.12;100.00;98851.22;4842666;29;20385;-82
2023/01/20 04:51:40;;;;;;;8.98;2.50;;;;;;;4.10;100.00;98853.97;4852516;29;20034;-82
2023/01/20 04:54:06;;;;;;;8.20;2.30;;;;;;;3.94;100.00;98859.91;4857832;29;20474;-81
2023/01/20 04:56:35;;;;;;;8.73;3.65;;;;;;;4.22;100.00;98861.50;4855149;29;20041;-81
2023/01/20 04:59:01;;;;;;;9.90;2.35;;;;;;;4.15;100.00;98858.69;4855333;29;20130;-81
2023/01/20 05:01:26;;;;;;;15.02;3.10;;;;;;;4.14;100.00;98867.47;4853373;29;20073;-81
2023/01/20 05:03:52;;;;;;;6.72;2.58;;;;;;;4.22;100.00;98874.47;4855215;29;20037;-81
2023/01/20 05:06:18;;;;;;;8.65;2.28;;;;;;;4.16;100.00;98881.09;4857279;29;20105;-81
2023/01/20 05:08:44;;;;;;;9.48;2.78;;;;;;;4.27;100.00;98873.03;4858426;29;20037;-80
2023/01/20 05:11:10;;;;;;;5.55;2.20;;;;;;;4.08;100.00;98870.69;4851594;29;20074;-81
2023/01/20 05:13:38;;;;;;;8.88;2.13;;;;;;;4.04;100.00;98867.59;4855557;29;20069;-81
2023/01/20 05:16:07;;;;;;;7.75;1.75;;;;;;;4.30;100.00;98882.28;4836165;29;20037;-80
2023/01/20 05:18:34;;;;;;;9.23;1.88;;;;;;;4.30;100.00;98877.09;4850263;29;20044;-81
2023/01/20 05:21:02;;;;;;;9.23;2.45;;;;;;;4.45;100.00;98889.47;4850417;29;20034;-80
2023/01/20 05:23:28;;;;;;;6.80;2.13;;;;;;;4.29;100.00;98875.47;4851388;29;20026;-80
2023/01/20 05:25:54;;;;;;;7.75;2.35;;;;;;;4.35;100.00;98887.84;4854837;29;20064;-82
2023/01/20 05:28:20;;;;;;;10.80;2.00;;;;;;;4.21;100.00;98873.66;4852197;29;20041;-80
2023/01/20 05:30:49;;;;;;;12.00;1.85;;;;;;;4.42;100.00;98885.41;4836424;29;20034;-80
2023/01/20 05:33:15;;;;;;;9.88;2.17;;;;;;;4.29;100.00;98896.25;4849395;29;20037;-80
2023/01/20 05:35:40;;;;;;;11.27;1.70;;;;;;;4.25;100.00;98897.53;4848844;29;20472;-80
2023/01/20 05:38:06;;;;;;;6.75;2.50;;;;;;;4.09;100.00;98870.53;4852109;29;20567;-80
2023/01/20 05:40:31;;;;;;;8.20;2.28;;;;;;;4.11;100.00;98891.16;4852340;29;20034;-81
2023/01/20 05:42:58;;;;;;;11.32;1.90;;;;;;;4.18;100.00;98905.16;4847271;29;20018;-80
2023/01/20 05:45:24;;;;;;;7.28;1.80;;;;;;;4.16;100.00;98895.91;4849074;29;20100;-80
2023/01/20 05:47:55;;;;;;;5.25;1.70;;;;;;;4.18;100.00;98910.34;4853111;29;20048;-80
2023/01/20 05:50:26;;;;;;;5.47;1.80;;;;;;;4.25;100.00;98910.53;4851212;29;20478;-81
2023/01/20 05:52:52;;;;;;;4.20;1.90;;;;;;;4.27;100.00;98921.59;4831215;29;20512;-78
2023/01/20 05:55:18;;;;;;;5.20;1.60;;;;;;;4.24;100.00;98909.75;4851720;29;20137;-81
2023/01/20 05:57:44;;;;;;;5.75;1.75;;;;;;;4.17;100.00;98913.13;4849615;29;20468;-81
2023/01/20 06:00:11;;;;;;;3.97;1.40;;;;;;;4.10;100.00;98910.31;4837076;29;20037;-80
2023/01/20 06:02:38;;;;;;;8.23;1.83;;;;;;;4.09;100.00;98917.28;4842039;29;20121;-81
2023/01/20 06:05:04;;;;;;;4.50;1.98;;;;;;;4.06;100.00;98919.41;4835176;29;20488;-81
2023/01/20 06:07:30;;;;;;;18.33;2.20;;;;;;;4.08;100.00;98920.84;4848340;29;20433;-82
2023/01/20 06:09:56;;;;;;;5.25;1.88;;;;;;;4.11;100.00;98932.72;4834045;29;20030;-81
2023/01/20 06:12:23;;;;;;;3.95;1.80;;;;;;;4.22;100.00;98940.22;4852497;29;20113;-80
2023/01/20 06:14:49;;;;;;;3.75;1.67;;;;;;;4.21;100.00;98940.41;4850256;29;20295;-80
2023/01/20 06:17:15;;;;;;;6.53;1.85;;;;;;;4.29;100.00;98945.63;4851809;29;20076;-80
2023/01/20 06:19:40;;;;;;;8.65;2.03;;;;;;;4.20;100.00;98959.56;4848360;29;20125;-81
2023/01/20 06:22:08;;;;;;;7.75;1.67;;;;;;;4.10;100.00;98965.66;4850447;29;20030;-81
2023/01/20 06:24:34;;;;;;;8.77;1.80;;;;;;;4.30;100.00;98955.03;4848528;29;20034;-81
2023/01/20 06:26:59;;;;;;;11.38;2.25;;;;;;;4.31;100.00;98961.88;4851393;29;20029;-79
2023/01/20 06:29:25;;;;;;;6.88;1.85;;;;;;;4.32;100.00;98963.50;4853864;29;20069;-80
2023/01/20 06:31:51;;;;;;;8.32;1.80;;;;;;;4.10;100.00;98988.25;4846013;29;20052;-80
2023/01/20 06:34:17;;;;;;;6.70;1.95;;;;;;;4.26;100.00;98974.53;4837194;29;20029;-79
2023/01/20 06:36:42;;;;;;;4.43;1.40;;;;;;;4.31;100.00;98976.66;4851601;29;20029;-82
2023/01/20 06:39:08;;;;;;;8.60;1.55;;;;;;;4.24;100.00;98981.66;4854029;29;20105;-79
2023/01/20 06:41:34;;;;;;;7.88;1.75;;;;;;;4.18;100.00;98984.88;4851275;29;20042;-80
2023/01/20 06:44:00;;;;;;;8.07;1.48;;;;;;;4.31;100.00;98985.25;4848944;29;20042;-81
2023/01/20 06:46:26;;;;;;;8.43;2.47;;;;;;;4.32;100.00;98994.69;4851401;29;20026;-81
2023/01/20 06:48:53;;;;;;;2.42;1.55;;;;;;;4.21;100.00;98997.56;4849498;29;20041;-81
2023/01/20 06:51:19;;;;;;;10.40;1.65;;;;;;;4.13;100.00;98999.16;4848286;29;20041;-81
2023/01/20 06:53:46;;;;;;;8.18;1.52;;;;;;;4.22;100.00;98996.59;4832276;29;20048;-80
2023/01/20 06:56:13;;;;;;;5.35;2.00;;;;;;;4.12;100.00;98994.91;4851896;29;20053;-80
2023/01/20 06:58:39;;;;;;;7.20;1.55;;;;;;;4.23;100.00;99003.41;4851957;29;20422;-80
2023/01/20 07:01:12;;;;;;;7.18;1.20;;;;;;;4.35;100.00;98999.59;4846453;29;20075;-82
2023/01/20 07:03:41;;;;;;;8.73;2.22;;;;;;;4.39;100.00;99011.31;4852727;29;20045;-81
2023/01/20 07:06:23;;;;;;;9.40;1.85;;;;;;;4.33;100.00;99016.28;4850026;29;20082;-82
2023/01/20 07:08:52;;;;;;;6.35;1.45;;;;;;;4.21;100.00;98993.16;4828930;29;20026;-81
2023/01/20 07:11:18;;;;;;;4.30;1.58;;;;;;;4.17;100.00;99017.81;4848202;29;20422;-82
2023/01/20 07:13:44;;;;;;;4.55;1.50;;;;;;;4.22;100.00;99030.38;4853382;29;20519;-81
2023/01/20 07:16:10;;;;;;;7.93;1.83;;;;;;;4.25;100.00;99025.69;4850951;29;20030;-82
2023/01/20 07:18:37;;;;;;;5.72;1.52;;;;;;;4.22;100.00;99046.75;4832419;29;20030;-81
2023/01/20 07:21:03;;;;;;;4.88;1.55;;;;;;;4.18;100.00;99045.44;4846754;29;20089;-80
2023/01/20 07:23:31;;;;;;;3.92;1.40;;;;;;;4.03;100.00;99032.19;4852342;29;20125;-83
2023/01/20 07:26:17;;;;;;;5.75;1.50;;;;;;;4.31;100.00;99058.00;4855638;29;20038;-83
2023/01/20 07:28:43;;;;;;;6.63;1.58;;;;;;;4.38;100.00;99043.47;4850671;29;20034;-84
2023/01/20 07:31:14;;;;;;;8.73;1.50;;;;;;;4.39;100.00;99058.09;4852569;29;20122;-82
2023/01/20 07:33:40;;;;;;;4.55;1.38;;;;;;;4.35;100.00;99059.38;4850777;29;20038;-84
2023/01/20 07:36:07;;;;;;;3.40;1.75;;;;;;;4.29;100.00;99059.94;4853231;29;20103;-83
2023/01/20 07:38:33;;;;;;;5.63;1.35;;;;;;;4.43;100.00;99069.78;4848814;29;20037;-83
2023/01/20 07:41:00;;;;;;;4.68;1.25;;;;;;;4.16;100.00;99069.97;4851900;29;20033;-81
2023/01/20 07:43:26;;;;;;;6.65;1.52;;;;;;;4.23;100.00;99083.97;4853742;29;20038;-82
2023/01/20 07:45:59;;;;;;;1.75;1.20;;;;;;;4.34;100.00;99070.72;4848657;29;20118;-80
2023/01/20 07:48:25;;;;;;;6.15;2.67;;;;;;;4.17;100.00;99076.78;4844416;29;20544;-82
2023/01/20 07:51:06;;;;;;;7.18;2.28;;;;;;;4.21;100.00;99088.50;4829336;29;20109;-82
2023/01/20 07:53:34;;;;;;;9.18;3.28;;;;;;;4.22;100.00;99092.72;4848639;29;20084;-82
2023/01/20 07:56:01;;;;;;;5.03;1.75;;;;;;;4.23;100.00;99099.56;4851386;29;20058;-81
2023/01/20 07:58:28;;;;;;;5.15;2.30;;;;;;;4.26;100.00;99096.63;4846082;29;20040;-80
2023/01/20 08:00:54;;;;;;;7.63;2.53;;;;;;;4.32;100.00;99097.81;4846720;29;20040;-79
2023/01/20 08:03:20;;;;;;;7.20;1.90;;;;;;;4.28;100.00;99098.13;4836752;29;20128;-81
2023/01/20 08:05:46;;;;;;;8.52;2.42;;;;;;;4.27;100.00;99095.69;4831101;29;20109;-81
2023/01/20 08:08:12;;;;;;;5.18;1.60;;;;;;;4.40;100.00;99101.28;4848686;29;20034;-81
2023/01/20 08:10:37;;;;;;;5.82;1.65;;;;;;;4.33;100.00;99115.03;4849064;29;20060;-81
2023/01/20 08:13:03;;;;;;;10.20;2.80;;;;;;;4.18;100.00;99112.19;4850784;29;20041;-83
2023/01/20 08:15:28;;;;;;;5.90;1.70;;;;;;;4.35;100.00;99118.31;4836243;29;20038;-84
2023/01/20 08:17:55;;;;;;;5.03;1.73;;;;;;;4.31;100.00;99133.38;4847490;29;20045;-82
2023/01/20 08:20:21;;;;;;;7.07;1.83;;;;;;;4.04;100.00;99142.91;4838595;29;20042;-84
2023/01/20 08:22:48;;;;;;;6.32;1.80;;;;;;;4.32;100.00;99140.19;4836559;29;20045;-83
2023/01/20 08:25:14;;;;;;;9.13;1.80;;;;;;;4.16;100.00;99134.91;4854310;29;20030;-83
2023/01/20 08:27:39;;;;;;;3.72;1.67;;;;;;;4.32;100.00;99140.19;4851762;29;20047;-81
2023/01/20 08:30:05;;;;;;;4.68;1.52;;;;;;;4.20;100.00;99151.81;4852864;29;20373;-83
2023/01/20 08:32:31;;;;;;;7.22;1.73;;;;;;;4.38;100.00;99165.59;4834304;29;20046;-84
2023/01/20 08:34:57;;;;;;;5.03;1.65;;;;;;;4.36;100.00;99158.91;4855674;29;20026;-82
2023/01/20 08:37:23;;;;;;;4.00;1.40;;;;;;;4.34;100.00;99143.50;4854432;29;20064;-83
2023/01/20 08:39:48;;;;;;;3.67;1.25;;;;;;;4.47;100.00;99152.66;4853439;29;20049;-83
2023/01/20 08:42:14;;;;;;;4.97;1.60;;;;;;;4.46;100.00;99166.63;4852177;29;20057;-82
2023/01/20 08:44:40;;;;;;;4.68;1.88;;;;;;;4.56;100.00;99165.56;4851597;29;20034;-83
2023/01/20 08:47:06;;;;;;;5.72;1.67;;;;;;;4.39;100.00;99169.84;4837334;29;20393;-83
2023/01/20 08:49:32;;;;;;;5.55;1.65;;;;;;;4.59;100.00;99172.25;4837427;29;20050;-83
2023/01/20 08:51:57;;;;;;;5.05;1.80;;;;;;;4.35;100.00;99191.91;4852487;29;20034;-82
2023/01/20 08:54:23;;;;;;;4.13;1.70;;;;;;;4.43;100.00;99193.75;4850395;29;20033;-82
2023/01/20 08:56:50;;;;;;;3.92;1.45;;;;;;;4.20;100.00;99204.59;4853686;29;20114;-83
2023/01/20 08:59:16;;;;;;;6.45;1.65;;;;;;;4.45;100.00;99212.59;4854954;29;20065;-82
2023/01/20 09:01:42;;;;;;;5.93;1.83;;;;;;;4.36;100.00;99208.28;4850772;29;20125;-84
2023/01/20 09:04:08;;;;;;;5.70;1.45;;;;;;;4.49;100.00;99213.94;4838808;29;20033;-82
2023/01/20 09:06:40;;;;;;;6.88;1.60;;;;;;;4.57;100.00;99201.00;4834130;29;20049;-81
2023/01/20 09:09:06;;;;;;;6.30;1.63;;;;;;;4.63;100.00;99204.78;4851555;29;20062;-83
2023/01/20 09:11:32;;;;;;;6.28;2.15;;;;;;;4.54;100.00;99208.28;4857735;29;20070;-83
2023/01/20 09:13:58;;;;;;;6.60;2.20;;;;;;;4.49;100.00;99213.94;4838088;29;20109;-84
2023/01/20 09:16:23;;;;;;;12.52;2.80;;;;;;;4.67;100.00;99213.09;4851202;29;20149;-83
2023/01/20 09:18:49;;;;;;;3.97;2.17;;;;;;;4.63;100.00;99219.56;4836284;29;20102;-83
2023/01/20 09:21:15;;;;;;;6.47;2.10;;;;;;;4.59;100.00;99219.03;4852372;29;20034;-81
2023/01/20 09:23:41;;;;;;;6.47;3.13;;;;;;;4.78;100.00;99218.03;4853258;29;20044;-82
2023/01/20 09:26:08;;;;;;;8.18;3.65;;;;;;;4.81;100.00;99222.91;4853073;29;20034;-83
2023/01/20 09:28:34;;;;;;;6.60;2.00;;;;;;;4.83;100.00;99243.59;4852833;29;20091;-83
2023/01/20 09:31:03;;;;;;;4.78;2.05;;;;;;;4.84;100.00;99232.22;4853199;29;20116;-83
2023/01/20 09:33:29;;;;;;;8.70;2.13;;;;;;;4.87;100.00;99242.31;4856554;29;20064;-85
2023/01/20 09:35:56;;;;;;;4.47;1.77;;;;;;;4.97;100.00;99250.84;4851939;29;20045;-82
2023/01/20 09:44:32;;;;;;;5.93;2.08;;;;;;;5.06;100.00;99256.91;4850147;29;20496;-83
2023/01/20 09:47:30;;;;;;;5.82;2.08;;;;;;;5.18;100.00;99262.69;4835536;29;20524;-83
2023/01/20 09:53:34;;;;;;;5.30;2.13;;;;;;;5.48;100.00;99270.94;4854168;29;20044;-84
2023/01/20 09:56:23;;;;;;;4.40;1.50;;;;;;;5.32;100.00;99270.91;4831669;29;20058;-85
2023/01/20 09:59:08;;;;;;;6.05;1.60;;;;;;;5.31;100.00;99270.06;4831355;29;20068;-84
2023/01/20 10:01:48;;;;;;;4.90;1.23;;;;;;;5.25;100.00;99263.69;4851357;29;20485;-84
2023/01/20 10:04:31;;;;;;;5.22;1.42;;;;;;;5.22;100.00;99276.22;4830830;29;20038;-83
2023/01/20 10:07:07;;;;;;;;;;;;;;;5.41;100.00;99285.56;4832050;29;20060;-85
2023/01/20 10:09:39;;;;;;;5.28;1.70;;;;;;;5.40;100.00;99284.78;4833650;29;19924;-84
2023/01/20 10:12:11;;;;;;;11.65;3.30;;;;;;;5.51;100.00;99291.50;4839040;29;20393;-83
2023/01/20 10:14:45;;;;;;;14.00;3.08;;;;;;;5.45;100.00;99299.91;4830695;29;20041;-83
2023/01/20 10:17:23;;;;;;;5.65;2.05;;;;;;;5.27;100.00;99290.38;4845162;29;20863;-78
2023/01/20 10:19:57;;;;;;;12.90;3.17;;;;;;;5.41;100.00;99291.59;4833779;29;20057;-84
2023/01/20 10:22:39;;;;;;;12.88;3.00;;;;;;;5.28;100.00;99305.00;4833595;29;20125;-84
2023/01/20 10:25:13;;;;;;;18.52;3.67;;;;;;;5.32;100.00;99307.34;4836279;29;20042;-84
2023/01/20 10:27:55;;;;;;;6.13;2.28;;;;;;;5.35;100.00;99302.63;4851865;29;20054;-82
2023/01/20 10:30:25;;;;;;;5.50;1.83;;;;;;;5.45;100.00;99304.31;4830448;29;20034;-83
2023/01/20 10:33:01;;;;;;;6.75;1.48;;;;;;;5.64;100.00;99306.69;4847952;29;20395;-83
2023/01/20 10:35:30;;;;;;;8.40;1.45;;;;;;;5.76;100.00;99307.22;4833145;29;20033;-85
2023/01/20 10:37:57;;;;;;;4.32;1.30;;;;;;;5.63;100.00;99319.84;4847095;29;20124;-85
2023/01/20 10:40:52;;;;;;;3.67;1.50;;;;;;;5.61;100.00;99312.22;4849611;29;20042;-82
2023/01/20 10:43:19;;;;;;;7.78;1.67;;;;;;;5.98;100.00;99320.66;4825805;29;20033;-81
2023/01/20 10:45:59;;;;;;;10.02;1.75;;;;;;;5.78;100.00;99333.94;4835792;29;20035;-80
2023/01/20 10:48:50;;;;;;;5.82;1.73;;;;;;;5.68;100.00;99328.84;4831459;29;20098;-81
2023/01/20 10:51:45;;;;;;;8.10;1.80;;;;;;;5.82;100.00;99319.63;4832115;29;20042;-81
2023/01/20 10:54:25;;;;;;;7.22;1.17;;;;;;;5.88;100.00;99333.81;4827777;29;20509;-81
2023/01/20 10:56:55;;;;;;;5.32;1.45;;;;;;;5.96;100.00;99325.22;4845765;29;20065;-81
2023/01/20 10:59:33;;;;;;;4.22;1.27;;;;;;;6.00;100.00;99336.94;4832562;29;20427;-81
2023/01/20 11:02:29;;;;;;;4.35;1.67;;;;;;;6.19;100.00;99345.50;4833861;29;20485;-80
2023/01/20 11:05:14;;;;;;;6.45;1.50;;;;;;;6.03;100.00;99349.69;4835570;29;20117;-82
2023/01/20 11:07:40;;;;;;;;;;;;;;;6.25;100.00;99352.69;4832915;29;20094;-81
2023/01/20 11:10:22;;;;;;;6.20;1.63;;;;;;;6.39;100.00;99354.69;4834900;29;20291;-81
2023/01/20 11:12:51;;;;;;;10.70;1.55;;;;;;;6.22;100.00;99355.63;4829949;29;20041;-80
2023/01/20 11:15:19;;;;;;;9.35;1.50;;;;;;;6.26;100.00;99367.34;4832248;29;20042;-82
2023/01/20 11:17:45;;;;;;;3.47;1.10;;;;;;;6.31;100.00;99357.28;4832446;29;20397;-81
2023/01/20 11:20:22;;;;;;;4.72;1.30;;;;;;;6.45;100.00;99350.63;4833591;29;20143;-81
2023/01/20 11:22:49;;;;;;;9.85;2.05;;;;;;;6.45;100.00;99331.56;4841051;29;20039;-81
2023/01/20 11:25:26;;;;;;;8.07;1.45;;;;;;;6.33;100.00;99357.94;4848029;29;20034;-82
2023/01/20 11:27:52;;;;;;;13.60;2.30;;;;;;;6.42;100.00;99346.53;4836958;29;20090;-80
2023/01/20 11:30:32;;;;;;;7.68;1.40;;;;;;;6.52;100.00;99356.03;4846511;29;20034;-80
2023/01/20 11:33:19;;;;;;;5.22;1.75;;;;;;;6.66;100.00;99360.59;4834733;29;20062;-81
2023/01/20 11:36:06;;;;;;;8.25;1.33;;;;;;;6.41;100.00;99370.19;4835200;29;20026;-81
2023/01/20 11:38:43;;;;;;;7.82;1.70;;;;;;;6.34;100.00;99375.22;4832463;29;20051;-82
2023/01/20 11:41:28;;;;;;;7.35;1.92;;;;;;;6.46;100.00;99374.91;4829690;29;20043;-82
2023/01/20 11:43:59;;;;;;;7.63;2.55;;;;;;;6.26;100.00;99388.22;4845763;29;20135;-81
2023/01/20 11:46:29;;;;;;;5.70;1.80;;;;;;;6.43;100.00;99379.47;4835050;29;20041;-81
2023/01/20 11:49:16;;;;;;;11.63;2.97;;;;;;;6.56;100.00;99375.59;4828236;29;20058;-82
2023/01/20 11:51:49;;;;;;;6.40;1.80;;;;;;;6.54;100.00;99380.16;4831781;29;20030;-82
2023/01/20 11:54:19;;;;;;;13.63;2.97;;;;;;;6.84;100.00;99370.09;4832746;29;20050;-81